Skip Navigation LinksHome page > Weather > Current weather Skip Navigation Links

Current Weather

San Francisco International, San Francisco

For information only: do not use for flight planning or navigation.
Latest weather
Observation time Saturday, February 13, 2016 10:56 PM PST
Local time Sunday, February 14, 2016 12:00 AM PST
Flight conditions Visual Meteorological Conditions
Winds
Wind direction West (270°)
Wind speed 17 mph
Visibility 10 mi.
Sky condition
Ceiling unlimited
Cloud layer few clouds 20,000 ft.
Temperature 56°F
Dewpoint 48°F
Altimeter 30.31 in.Hg
Derived measurements
Relative humidity 75%
Density altitude -470 ft.
Sea-level pressure 30.30 in.Hg
Remarks
System requires maintenance.
Automated weather observing station with precipitation discriminator.
METAR KSFO 140656Z 27015KT 10SM FEW200 13/09 A3031 RMK AO2 SLP262 T01330089 $

Settings

Location code

InnerDrive.Weather 4.0.5722.1 Release CLR 4.0.30319.34209
Copyright ©2015 Inner Drive Technology. All rights reserved. Portions Copyright ©1986-2015 David Braverman.

Find weather

Site navigation


Skip Navigation Links

Place info

Page info

PayPal - The safer, easier way to pay online!

Return home.

Copyright ©2016 Inner Drive Technology. Purveyors of fine, hand-crafted computer software. Page printed 2016-02-14T08:00:31 UTC.